Gore, Oklahoma
Current Conditions -  °F | °C
As of 9:53 AM on Friday 24 Oct 2014 (Local Time) from KMKO Reporting Station
Clear Clear  
Wind Chill: 60°   Ceiling: Unl
Heat Index: 60°   Visibility: 10mi
Dew Point: 55°   Wind: 8mph
Humidity: 83%   Direction: 170°S
Pressure: 30.16"   Gusts: NA
Location:  35.53°N, 95.12°W
Report Text: KMKO 241453Z AUTO 17007KT 10SM CLR 16/13 A3016 RMK AO2 SLP212 T01560128 53009
Loading
Personal Weather Stations






























Interactive Weather Map
Tropical Storm Tracking
New forecast layout! Learn more

10-Day Weather Forecast

Advertisements
Track Severe Weather on mobile